createdAt,value
2023-01-30T00:00:09.410Z,26.93
2023-01-30T00:03:11.028Z,25.20
2023-01-30T00:06:12.946Z,23.97
2023-01-30T00:09:17.539Z,27.17
2023-01-30T00:12:19.091Z,26.67
2023-01-30T00:15:20.747Z,23.47
2023-01-30T00:18:22.318Z,25.67
2023-01-30T00:21:23.972Z,27.67
2023-01-30T00:24:25.604Z,26.97
2023-01-30T00:27:27.294Z,25.93
2023-01-30T00:30:31.019Z,29.63
2023-01-30T00:33:32.705Z,31.00
2023-01-30T00:36:34.466Z,26.57
2023-01-30T00:39:36.252Z,25.33
2023-01-30T00:42:56.475Z,27.20
2023-01-30T00:46:16.787Z,24.50
2023-01-30T00:49:18.519Z,26.67
2023-01-30T00:52:20.136Z,29.53
2023-01-30T00:55:21.788Z,26.70
2023-01-30T00:58:24.275Z,28.83
2023-01-30T01:01:25.947Z,24.20
2023-01-30T01:04:27.704Z,26.27
2023-01-30T01:07:29.385Z,23.80
2023-01-30T01:10:31.012Z,22.33
2023-01-30T01:13:32.971Z,23.67
2023-01-30T01:16:35.321Z,24.50
2023-01-30T01:19:36.982Z,21.00
2023-01-30T01:22:38.829Z,20.00
2023-01-30T01:25:40.497Z,23.27
2023-01-30T01:28:42.159Z,20.57
2023-01-30T01:31:45.722Z,28.73
2023-01-30T01:34:47.362Z,22.53
2023-01-30T01:37:52.873Z,23.87
2023-01-30T01:41:06.130Z,24.47
2023-01-30T01:44:10.805Z,24.30
2023-01-30T01:47:14.012Z,23.90
2023-01-30T01:50:20.994Z,21.37
2023-01-30T01:53:25.066Z,23.37
2023-01-30T01:56:27.259Z,21.60
2023-01-30T01:59:37.088Z,23.10
2023-01-30T02:02:40.612Z,25.53
2023-01-30T02:05:44.144Z,27.90
2023-01-30T02:08:53.859Z,24.47
2023-01-30T02:11:57.263Z,27.77
2023-01-30T02:14:59.127Z,30.07
2023-01-30T02:18:00.854Z,27.60
2023-01-30T02:21:12.118Z,26.50
2023-01-30T02:24:19.846Z,31.50
2023-01-30T02:27:27.416Z,27.63
2023-01-30T02:30:41.308Z,29.13
2023-01-30T02:33:52.111Z,26.87
2023-01-30T02:37:06.107Z,28.83
2023-01-30T02:40:30.053Z,29.13
2023-01-30T02:43:35.737Z,25.30
2023-01-30T02:46:46.497Z,25.73
2023-01-30T02:49:51.254Z,24.17
2023-01-30T02:52:53.153Z,24.77
2023-01-30T02:55:54.837Z,24.23
2023-01-30T02:59:00.026Z,22.47
2023-01-30T03:02:14.718Z,25.33
2023-01-30T03:05:19.761Z,23.97
2023-01-30T03:08:32.235Z,21.77
2023-01-30T03:11:44.572Z,26.17
2023-01-30T03:14:49.818Z,23.03
2023-01-30T03:17:52.256Z,24.73
2023-01-30T03:20:54.231Z,24.90
2023-01-30T03:23:55.982Z,21.57
2023-01-30T03:27:07.931Z,21.57
2023-01-30T03:30:10.148Z,22.20
2023-01-30T03:33:11.941Z,23.23
2023-01-30T03:36:15.105Z,21.17
2023-01-30T03:39:16.787Z,21.87
2023-01-30T03:42:18.486Z,24.13
2023-01-30T03:45:20.331Z,18.80
2023-01-30T03:48:22.820Z,24.73
2023-01-30T03:51:25.026Z,18.00
2023-01-30T03:54:26.715Z,18.10
2023-01-30T03:57:29.337Z,23.47
2023-01-30T04:00:31.263Z,18.63
2023-01-30T04:03:33.643Z,18.73
2023-01-30T04:06:36.607Z,20.73
2023-01-30T04:09:39.876Z,21.00
2023-01-30T04:12:44.888Z,22.43
2023-01-30T04:15:46.631Z,26.23
2023-01-30T04:19:23.522Z,22.53
2023-01-30T04:22:25.436Z,25.97
2023-01-30T04:25:27.795Z,24.30
2023-01-30T04:28:29.623Z,23.50
2023-01-30T04:31:31.957Z,27.03
2023-01-30T04:34:39.739Z,20.70
2023-01-30T04:37:41.376Z,26.13
2023-01-30T04:40:48.193Z,28.40
2023-01-30T04:43:49.916Z,23.63
2023-01-30T04:47:11.779Z,26.77
2023-01-30T04:50:13.449Z,23.17
2023-01-30T04:53:17.372Z,27.53
2023-01-30T04:56:19.207Z,28.50
2023-01-30T04:59:23.103Z,25.50
2023-01-30T05:02:25.699Z,33.33
2023-01-30T05:05:27.581Z,30.53
2023-01-30T05:08:29.239Z,25.67
2023-01-30T05:11:31.059Z,26.37
2023-01-30T05:14:32.663Z,26.77
2023-01-30T05:17:34.860Z,27.50
2023-01-30T05:20:36.908Z,31.77
2023-01-30T05:23:38.703Z,24.63
2023-01-30T05:26:40.431Z,24.50
2023-01-30T05:29:42.349Z,29.20
2023-01-30T05:32:43.952Z,28.60
2023-01-30T05:35:49.034Z,28.00
2023-01-30T05:38:50.789Z,25.77
2023-01-30T05:41:52.421Z,30.43
2023-01-30T05:44:54.217Z,36.13
2023-01-30T05:47:58.599Z,33.10
2023-01-30T05:51:02.832Z,29.67
2023-01-30T05:54:04.524Z,28.97
2023-01-30T05:57:06.300Z,24.63
2023-01-30T06:00:08.414Z,26.40
2023-01-30T06:03:17.713Z,27.87
2023-01-30T06:06:20.012Z,30.30
2023-01-30T06:09:21.611Z,29.13
2023-01-30T06:12:23.209Z,25.40
2023-01-30T06:15:24.968Z,31.47
2023-01-30T06:18:27.043Z,29.23
2023-01-30T06:21:28.698Z,25.90
2023-01-30T06:24:30.389Z,27.37
2023-01-30T06:27:32.071Z,26.93
2023-01-30T06:30:33.774Z,36.43
2023-01-30T06:33:35.458Z,48.40
2023-01-30T06:36:37.123Z,42.37
2023-01-30T06:39:38.863Z,29.80
2023-01-30T06:42:47.412Z,31.40
2023-01-30T06:45:49.148Z,34.37
2023-01-30T06:48:50.889Z,32.17
2023-01-30T06:51:52.556Z,28.87
2023-01-30T06:54:54.187Z,28.43
2023-01-30T06:58:06.578Z,36.90
2023-01-30T07:01:08.250Z,37.07
2023-01-30T07:04:09.917Z,40.70
2023-01-30T07:07:11.598Z,45.73
2023-01-30T07:10:13.403Z,38.70
2023-01-30T07:13:15.598Z,28.20
2023-01-30T07:16:17.472Z,38.60
2023-01-30T07:19:19.164Z,62.50
2023-01-30T07:22:20.821Z,40.57
2023-01-30T07:25:24.594Z,40.43
2023-01-30T07:28:26.231Z,27.90
2023-01-30T07:31:27.878Z,25.57
2023-01-30T07:34:29.873Z,32.83
2023-01-30T07:37:40.649Z,27.90
2023-01-30T07:40:42.438Z,30.03
2023-01-30T07:43:44.108Z,31.30
2023-01-30T07:46:45.916Z,35.90
2023-01-30T07:49:47.502Z,47.73
2023-01-30T07:52:49.079Z,44.37
2023-01-30T07:55:50.736Z,36.33
2023-01-30T07:58:54.147Z,38.87
2023-01-30T08:01:57.039Z,27.77
2023-01-30T08:04:58.739Z,29.40
2023-01-30T08:08:00.991Z,32.97
2023-01-30T08:11:02.634Z,41.00
2023-01-30T08:14:04.266Z,33.67
2023-01-30T08:17:05.890Z,42.00
2023-01-30T08:20:07.948Z,32.03
2023-01-30T08:23:09.943Z,35.50
2023-01-30T08:26:11.541Z,51.03
2023-01-30T08:29:13.194Z,37.33
2023-01-30T08:32:15.894Z,60.20
2023-01-30T08:35:17.669Z,31.73
2023-01-30T08:38:19.265Z,51.27
2023-01-30T08:41:21.080Z,37.40
2023-01-30T08:44:22.740Z,43.73
2023-01-30T08:47:24.394Z,39.40
2023-01-30T08:50:26.195Z,51.23
2023-01-30T08:53:27.937Z,206.40
2023-01-30T08:56:29.566Z,67.80
2023-01-30T08:59:31.210Z,37.60
2023-01-30T09:02:32.915Z,24.37
2023-01-30T09:05:34.718Z,33.03
2023-01-30T09:08:36.409Z,29.87
2023-01-30T09:11:38.064Z,25.23
2023-01-30T09:14:39.714Z,30.97
2023-01-30T09:17:41.502Z,40.50
2023-01-30T09:20:43.138Z,23.00
2023-01-30T09:23:44.811Z,46.67
2023-01-30T09:26:46.590Z,158.60
2023-01-30T09:29:49.467Z,79.50
2023-01-30T09:32:51.199Z,80.30
2023-01-30T09:35:52.870Z,43.87
2023-01-30T09:38:54.497Z,23.33
2023-01-30T09:42:12.819Z,33.90
2023-01-30T09:45:33.166Z,19.27
2023-01-30T09:48:42.518Z,25.97
2023-01-30T09:51:50.659Z,28.30
2023-01-30T09:54:54.854Z,26.37
2023-01-30T09:57:57.840Z,18.40
2023-01-30T10:01:03.711Z,27.87
2023-01-30T10:04:10.093Z,24.33
2023-01-30T10:07:17.863Z,24.27
2023-01-30T10:10:19.802Z,25.27
2023-01-30T10:13:33.655Z,37.90
2023-01-30T10:17:07.624Z,86.40
2023-01-30T10:20:32.583Z,110.10
2023-01-30T10:23:50.649Z,50.80
2023-01-30T10:26:53.019Z,43.63
2023-01-30T10:29:57.170Z,24.53
2023-01-30T10:33:02.313Z,22.67
2023-01-30T10:36:07.662Z,28.37
2023-01-30T10:39:21.561Z,21.17
2023-01-30T10:42:39.080Z,25.30
2023-01-30T10:45:40.729Z,24.80
2023-01-30T10:48:48.395Z,22.80
2023-01-30T10:52:02.418Z,30.83
2023-01-30T10:55:13.076Z,42.40
2023-01-30T10:58:26.583Z,30.30
2023-01-30T11:01:37.488Z,22.20
2023-01-30T11:04:58.322Z,32.30
2023-01-30T11:08:00.857Z,26.03
2023-01-30T11:11:21.400Z,46.00
2023-01-30T11:14:23.457Z,45.77
2023-01-30T11:17:29.811Z,29.13
2023-01-30T11:20:31.475Z,32.00
2023-01-30T11:23:51.268Z,41.90
2023-01-30T11:26:53.516Z,30.47
2023-01-30T11:30:14.580Z,20.03
2023-01-30T11:33:17.996Z,30.40
2023-01-30T11:36:27.275Z,36.27
2023-01-30T11:39:29.043Z,29.53
2023-01-30T11:42:31.394Z,24.77
2023-01-30T11:45:38.425Z,31.07
2023-01-30T11:49:09.273Z,24.90
2023-01-30T11:52:17.867Z,30.10
2023-01-30T11:55:20.512Z,31.07
2023-01-30T11:58:22.225Z,34.77
2023-01-30T12:01:26.062Z,29.70
2023-01-30T12:04:28.305Z,29.10
2023-01-30T12:07:30.924Z,31.80
2023-01-30T12:10:32.613Z,30.30
2023-01-30T12:13:36.412Z,39.87
2023-01-30T12:16:58.292Z,58.43
2023-01-30T12:20:29.387Z,31.13
2023-01-30T12:23:38.565Z,32.87
2023-01-30T12:26:45.567Z,31.93
2023-01-30T12:30:03.196Z,50.47
2023-01-30T12:33:05.943Z,39.33
2023-01-30T12:36:10.693Z,32.40
2023-01-30T12:39:14.766Z,41.47
2023-01-30T12:42:34.969Z,50.23
2023-01-30T12:45:53.956Z,48.77
2023-01-30T12:49:14.447Z,45.47
2023-01-30T12:52:35.257Z,50.13
2023-01-30T12:55:55.837Z,82.67
2023-01-30T12:59:18.110Z,39.70
2023-01-30T13:02:38.386Z,35.23
2023-01-30T13:05:58.811Z,28.97
2023-01-30T13:09:00.472Z,35.63
2023-01-30T13:12:02.131Z,28.67
2023-01-30T13:15:11.876Z,25.60
2023-01-30T13:18:16.022Z,26.17
2023-01-30T13:21:21.369Z,31.90
2023-01-30T13:24:43.211Z,26.63
2023-01-30T13:27:55.931Z,37.13
2023-01-30T13:30:58.826Z,67.47
2023-01-30T13:34:07.622Z,330.50
2023-01-30T13:37:11.676Z,57.73
2023-01-30T13:40:13.382Z,49.90
2023-01-30T13:43:18.107Z,63.93
2023-01-30T13:46:24.616Z,75.50
2023-01-30T13:49:43.802Z,65.63
2023-01-30T13:53:24.059Z,63.30
2023-01-30T13:57:00.950Z,48.53
2023-01-30T14:00:02.574Z,51.40
2023-01-30T14:03:22.917Z,71.50
2023-01-30T14:06:24.519Z,41.23
2023-01-30T14:09:29.088Z,41.07
2023-01-30T14:12:35.462Z,36.37
2023-01-30T14:15:39.307Z,104.27
2023-01-30T14:18:40.925Z,31.17
2023-01-30T14:21:53.787Z,27.03
2023-01-30T14:25:25.199Z,29.83
2023-01-30T14:28:29.854Z,38.93
2023-01-30T14:31:48.835Z,49.27
2023-01-30T14:34:50.593Z,49.57
2023-01-30T14:38:05.042Z,33.40
2023-01-30T14:41:09.673Z,48.43
2023-01-30T14:44:11.351Z,44.00
2023-01-30T14:47:34.015Z,43.47
2023-01-30T14:50:40.809Z,40.80
2023-01-30T14:54:00.820Z,49.53
2023-01-30T14:57:03.893Z,53.90
2023-01-30T15:00:18.147Z,39.53
2023-01-30T15:03:20.612Z,44.70
2023-01-30T15:06:26.236Z,40.17
2023-01-30T15:09:28.975Z,58.33
2023-01-30T15:12:49.361Z,62.00
2023-01-30T15:16:09.544Z,53.00
2023-01-30T15:19:23.126Z,48.27
2023-01-30T15:22:24.678Z,39.13
2023-01-30T15:25:30.737Z,66.50
2023-01-30T15:28:50.807Z,34.87
2023-01-30T15:32:02.278Z,48.03
2023-01-30T15:35:15.961Z,37.33
2023-01-30T15:38:25.816Z,43.63
2023-01-30T15:41:29.254Z,49.27
2023-01-30T15:44:39.619Z,35.40
2023-01-30T15:47:47.381Z,46.40
2023-01-30T15:50:57.250Z,42.57
2023-01-30T15:54:00.093Z,37.57
2023-01-30T15:57:01.837Z,30.23
2023-01-30T16:00:05.490Z,44.10
2023-01-30T16:03:16.992Z,52.33
2023-01-30T16:06:21.716Z,46.17
2023-01-30T16:09:26.315Z,35.13
2023-01-30T16:12:29.297Z,43.73
2023-01-30T16:15:49.906Z,42.93
2023-01-30T16:18:53.638Z,45.00
2023-01-30T16:22:00.249Z,51.50
2023-01-30T16:25:02.596Z,42.53
2023-01-30T16:28:04.251Z,39.90
2023-01-30T16:31:07.394Z,81.83
2023-01-30T16:34:28.409Z,74.63
2023-01-30T16:37:31.059Z,62.57
2023-01-30T16:40:46.104Z,43.00
2023-01-30T16:44:06.519Z,51.13
2023-01-30T16:47:22.000Z,55.63
2023-01-30T16:50:23.840Z,54.73
2023-01-30T16:53:26.654Z,50.57
2023-01-30T16:56:28.627Z,51.07
2023-01-30T16:59:35.351Z,52.83
2023-01-30T17:02:39.047Z,44.97
2023-01-30T17:05:42.902Z,60.60
2023-01-30T17:08:49.485Z,67.03
2023-01-30T17:15:12.030Z,51.33
2023-01-30T17:18:13.935Z,57.67
2023-01-30T17:21:15.868Z,78.00
2023-01-30T17:24:19.717Z,77.20
2023-01-30T17:27:21.736Z,74.70
2023-01-30T17:30:23.348Z,76.20
2023-01-30T17:33:26.105Z,61.10
2023-01-30T17:36:29.921Z,53.60
2023-01-30T17:39:31.889Z,62.13
2023-01-30T17:42:33.557Z,79.53
2023-01-30T17:45:35.623Z,87.33
2023-01-30T17:48:37.572Z,84.47
2023-01-30T17:51:39.270Z,99.17
2023-01-30T17:54:40.969Z,90.70
2023-01-30T17:57:44.447Z,91.63
2023-01-30T18:00:48.230Z,95.53
2023-01-30T18:03:49.909Z,92.87
2023-01-30T18:06:56.915Z,96.43
2023-01-30T18:09:58.626Z,106.37
2023-01-30T18:13:00.209Z,99.73
2023-01-30T18:16:03.513Z,127.17
2023-01-30T18:19:06.678Z,105.83
2023-01-30T18:22:08.312Z,107.77
2023-01-30T18:25:13.415Z,119.37
2023-01-30T18:28:15.093Z,107.67
2023-01-30T18:31:17.011Z,90.47
2023-01-30T18:34:18.680Z,80.07
2023-01-30T18:37:20.302Z,72.70
2023-01-30T18:40:22.339Z,83.47
2023-01-30T18:43:24.169Z,107.70
2023-01-30T18:46:26.159Z,132.77
2023-01-30T18:49:27.833Z,124.87
2023-01-30T18:52:29.468Z,100.93
2023-01-30T18:55:31.205Z,100.50
2023-01-30T18:58:32.987Z,101.87
2023-01-30T19:01:36.788Z,101.53
2023-01-30T19:04:39.467Z,102.33
2023-01-30T19:07:41.134Z,106.57
2023-01-30T19:10:42.745Z,122.93
2023-01-30T19:13:44.319Z,116.73
2023-01-30T19:16:45.980Z,125.43
2023-01-30T19:19:47.894Z,114.13
2023-01-30T19:22:49.847Z,121.90
2023-01-30T19:25:59.440Z,101.90
2023-01-30T19:29:01.118Z,142.30
2023-01-30T19:32:02.931Z,161.80
2023-01-30T19:35:05.194Z,187.83
2023-01-30T19:38:07.528Z,160.90
2023-01-30T19:41:16.704Z,151.20
2023-01-30T19:44:18.463Z,119.07
2023-01-30T19:47:22.024Z,111.50
2023-01-30T19:50:23.665Z,107.00
2023-01-30T19:53:25.385Z,115.00
2023-01-30T19:56:27.689Z,122.53
2023-01-30T19:59:29.282Z,113.93
2023-01-30T20:02:31.226Z,117.43
2023-01-30T20:05:33.113Z,128.20
2023-01-30T20:08:36.531Z,115.60
2023-01-30T20:11:40.327Z,123.53
2023-01-30T20:14:42.221Z,100.93
2023-01-30T20:17:43.960Z,83.27
2023-01-30T20:20:45.704Z,84.67
2023-01-30T20:23:48.673Z,81.83
2023-01-30T20:26:50.280Z,83.33
2023-01-30T20:29:51.958Z,77.93
2023-01-30T20:32:54.463Z,82.03
2023-01-30T20:36:01.044Z,65.17
2023-01-30T20:39:04.510Z,63.40
2023-01-30T20:42:06.597Z,61.60
2023-01-30T20:45:09.008Z,53.17
2023-01-30T20:48:10.715Z,48.17
2023-01-30T20:51:13.554Z,47.97
2023-01-30T20:54:15.469Z,60.53
2023-01-30T20:57:20.115Z,56.63
2023-01-30T21:00:22.222Z,49.67
2023-01-30T21:03:28.059Z,53.73
2023-01-30T21:06:37.122Z,49.67
2023-01-30T21:09:46.528Z,40.13
2023-01-30T21:12:48.135Z,47.53
2023-01-30T21:16:00.393Z,45.37
2023-01-30T21:19:04.244Z,45.63
2023-01-30T21:22:10.292Z,48.27
2023-01-30T21:25:12.295Z,49.30
2023-01-30T21:28:13.961Z,41.50
2023-01-30T21:31:20.225Z,40.23
2023-01-30T21:34:25.055Z,47.13
2023-01-30T21:37:45.326Z,46.30
2023-01-30T21:41:09.376Z,44.27
2023-01-30T21:44:11.529Z,47.97
2023-01-30T21:47:13.110Z,63.83
2023-01-30T21:50:14.928Z,68.23
2023-01-30T21:53:16.648Z,81.67
2023-01-30T21:56:18.541Z,79.70
2023-01-30T21:59:20.182Z,74.97
2023-01-30T22:02:21.846Z,80.03
2023-01-30T22:05:23.505Z,34.60
2023-01-30T22:08:25.124Z,53.40
2023-01-30T22:11:27.103Z,52.03
2023-01-30T22:14:29.307Z,47.17
2023-01-30T22:17:30.938Z,56.57
2023-01-30T22:20:32.572Z,49.73
2023-01-30T22:23:38.582Z,43.13
2023-01-30T22:26:40.811Z,37.10
2023-01-30T22:29:42.699Z,50.23
2023-01-30T22:32:44.318Z,44.50
2023-01-30T22:35:50.065Z,46.30
2023-01-30T22:38:51.756Z,55.77
2023-01-30T22:41:53.384Z,50.03
2023-01-30T22:44:54.957Z,39.50
2023-01-30T22:47:56.575Z,26.33
2023-01-30T22:51:08.819Z,37.90
2023-01-30T22:54:11.830Z,45.90
2023-01-30T22:57:13.518Z,52.30
2023-01-30T23:00:15.367Z,48.90
2023-01-30T23:03:16.976Z,55.43
2023-01-30T23:06:18.775Z,54.43
2023-01-30T23:09:22.264Z,50.63
2023-01-30T23:12:42.437Z,40.53
2023-01-30T23:15:46.670Z,42.60
2023-01-30T23:19:00.763Z,36.47
2023-01-30T23:22:02.363Z,48.73
2023-01-30T23:25:04.099Z,39.60
2023-01-30T23:28:05.751Z,37.83
2023-01-30T23:31:07.409Z,46.30
2023-01-30T23:34:12.372Z,38.80
2023-01-30T23:37:13.969Z,41.97
2023-01-30T23:40:15.577Z,39.37
2023-01-30T23:43:17.471Z,56.40
2023-01-30T23:46:23.511Z,45.00
2023-01-30T23:49:25.222Z,44.23
2023-01-30T23:52:27.060Z,51.20
2023-01-30T23:55:28.640Z,50.30
2023-01-30T23:58:30.452Z,58.27
